Time;durP1;ratioP1;P1;durP2;ratioP2;P2;SDS_P1;SDS_P2;PMS_P1;PMS_P2;Temp;Humidity;BMP_temperature;BMP_pressure;BME280_temperature;BME280_humidity;BME280_pressure;Samples;Min_cycle;Max_cycle;Signal;HPM_P1;HPM_P2
2022/06/19 00:01:55;;;;;;;7.70;4.40;;;;;;;26.25;61.36;99633.50;5014212;28;20496;-61
2022/06/19 00:04:20;;;;;;;10.20;4.33;;;;;;;26.25;61.37;99632.72;5031612;28;20459;-61
2022/06/19 00:06:46;;;;;;;8.50;4.23;;;;;;;26.24;60.92;99617.41;5031581;28;20454;-61
2022/06/19 00:09:11;;;;;;;7.90;4.40;;;;;;;26.24;61.25;99605.03;5031625;28;20180;-61
2022/06/19 00:11:39;;;;;;;10.80;4.50;;;;;;;26.23;60.85;99610.00;5030772;28;20506;-61
2022/06/19 00:14:04;;;;;;;10.00;4.80;;;;;;;26.23;60.90;99597.59;5029882;28;20196;-61
2022/06/19 00:16:30;;;;;;;11.00;4.30;;;;;;;26.24;61.58;99597.16;5035749;28;20461;-61
2022/06/19 00:18:55;;;;;;;9.97;3.97;;;;;;;26.23;61.00;99600.50;5049197;28;20229;-61
2022/06/19 00:21:21;;;;;;;11.27;4.67;;;;;;;26.22;61.14;99593.91;5049546;28;20183;-61
2022/06/19 00:23:46;;;;;;;9.80;4.10;;;;;;;26.22;60.79;99599.69;5045657;28;20212;-61
2022/06/19 00:26:12;;;;;;;9.63;4.00;;;;;;;26.22;61.26;99593.91;5030727;28;20175;-61
2022/06/19 00:28:40;;;;;;;9.37;4.70;;;;;;;26.22;61.04;99585.22;5071298;28;20183;-62
2022/06/19 00:31:06;;;;;;;8.23;3.93;;;;;;;26.22;60.87;99593.09;5071265;28;20417;-62
2022/06/19 00:33:32;;;;;;;11.27;4.00;;;;;;;26.22;60.70;99575.72;5071246;28;20437;-62
2022/06/19 00:35:57;;;;;;;12.00;4.60;;;;;;;26.21;61.29;99583.63;5071188;28;20245;-62
2022/06/19 00:38:22;;;;;;;7.00;3.97;;;;;;;26.21;61.17;99583.63;5071063;28;20185;-62
2022/06/19 00:40:48;;;;;;;9.13;4.43;;;;;;;26.20;60.49;99579.06;5071483;28;20186;-62
2022/06/19 00:43:13;;;;;;;11.20;4.40;;;;;;;26.20;60.61;99578.25;5070819;28;20187;-62
2022/06/19 00:45:49;;;;;;;9.83;4.30;;;;;;;26.19;61.19;99571.66;5071130;28;20290;-62
2022/06/19 00:48:19;;;;;;;8.40;4.40;;;;;;;26.18;61.07;99578.72;5038247;28;20191;-62
2022/06/19 00:50:46;;;;;;;11.47;3.93;;;;;;;26.19;60.66;99580.34;5029696;28;20411;-62
2022/06/19 00:53:13;;;;;;;9.80;3.83;;;;;;;26.17;60.52;99577.09;5029423;28;20488;-62
2022/06/19 00:55:41;;;;;;;11.60;4.07;;;;;;;26.17;60.66;99577.09;5031030;28;20473;-62
2022/06/19 00:58:08;;;;;;;8.90;3.83;;;;;;;26.17;60.82;99568.41;5029937;28;20403;-62
2022/06/19 01:00:33;;;;;;;11.77;4.50;;;;;;;26.17;60.99;99571.31;5031535;28;20934;-62
2022/06/19 01:03:03;;;;;;;10.23;4.20;;;;;;;26.17;60.85;99576.25;5031027;28;20430;-62
2022/06/19 01:05:29;;;;;;;10.10;4.40;;;;;;;26.17;60.44;99576.25;5029560;28;20585;-61
2022/06/19 01:07:56;;;;;;;8.07;3.80;;;;;;;26.18;60.50;99583.66;5013225;28;20418;-61
2022/06/19 01:10:21;;;;;;;7.50;3.83;;;;;;;26.17;60.61;99584.94;5029543;28;20652;-61
2022/06/19 01:12:47;;;;;;;13.03;4.43;;;;;;;26.18;60.32;99592.34;5030853;28;20510;-61
2022/06/19 01:15:17;;;;;;;11.50;4.30;;;;;;;26.17;60.91;99590.72;5031255;28;20176;-61
2022/06/19 01:17:43;;;;;;;10.63;4.40;;;;;;;26.17;60.61;99591.56;5030834;28;20271;-61
2022/06/19 01:20:09;;;;;;;10.83;4.80;;;;;;;26.15;60.66;99594.06;5029478;28;20423;-61
2022/06/19 01:23:01;;;;;;;12.47;4.27;;;;;;;26.16;60.69;99589.09;5029136;28;20190;-61
2022/06/19 01:25:33;;;;;;;10.27;4.10;;;;;;;26.16;60.41;99592.81;5019420;28;20978;-61
2022/06/19 01:30:50;;;;;;;10.90;4.00;;;;;;;26.15;60.37;99588.28;5071944;28;20803;-61
2022/06/19 01:33:34;;;;;;;10.40;3.87;;;;;;;26.16;59.83;99603.56;5074398;28;20425;-61
2022/06/19 01:36:00;;;;;;;9.13;4.00;;;;;;;26.15;59.94;99594.06;5074438;28;20182;-61
2022/06/19 01:38:25;;;;;;;12.87;4.07;;;;;;;26.14;60.21;99589.56;5072407;28;20892;-61
2022/06/19 01:40:52;;;;;;;11.53;3.80;;;;;;;26.15;60.22;99584.59;5058738;28;20419;-61
2022/06/19 01:43:18;;;;;;;9.43;4.40;;;;;;;26.14;59.79;99586.66;5015832;28;20187;-61
2022/06/19 01:45:45;;;;;;;9.00;4.27;;;;;;;26.14;59.69;99577.97;5033904;28;20545;-61
2022/06/19 01:48:10;;;;;;;11.10;4.00;;;;;;;26.13;60.20;99579.25;5033714;28;20227;-61
2022/06/19 01:50:36;;;;;;;7.90;4.13;;;;;;;26.14;60.09;99582.97;5034695;28;20431;-61
2022/06/19 01:53:10;;;;;;;8.70;3.47;;;;;;;26.13;59.64;99585.03;5032201;28;20172;-61
2022/06/19 01:55:36;;;;;;;13.30;3.90;;;;;;;26.14;60.25;99586.66;5032815;28;20315;-61
2022/06/19 01:58:02;;;;;;;9.77;4.00;;;;;;;26.14;59.76;99580.88;5016194;28;20422;-61
2022/06/19 02:00:29;;;;;;;9.20;3.33;;;;;;;26.14;59.67;99577.19;5032605;28;20640;-61
2022/06/19 02:03:03;;;;;;;8.63;3.80;;;;;;;26.13;60.09;99579.25;5033945;28;20185;-61
2022/06/19 02:05:29;;;;;;;12.30;3.53;;;;;;;26.12;59.57;99571.84;5032239;28;20466;-61
2022/06/19 02:07:54;;;;;;;9.40;4.07;;;;;;;26.13;59.65;99579.25;5014067;28;20965;-61
2022/06/19 02:10:20;;;;;;;13.20;3.93;;;;;;;26.12;59.74;99577.63;5031494;28;20219;-61
2022/06/19 02:12:45;;;;;;;10.70;3.90;;;;;;;26.12;59.64;99586.31;5023007;28;20179;-61
2022/06/19 02:15:12;;;;;;;13.30;3.77;;;;;;;26.11;60.04;99586.75;5051817;28;20480;-62
2022/06/19 02:17:42;;;;;;;6.20;3.03;;;;;;;26.11;59.82;99575.19;5051406;28;20180;-62
2022/06/19 02:20:09;;;;;;;7.90;3.77;;;;;;;26.10;59.86;99571.44;5051660;28;20407;-61
2022/06/19 02:22:37;;;;;;;8.43;3.60;;;;;;;26.09;59.87;99566.94;5052070;28;20422;-62
2022/06/19 02:25:03;;;;;;;10.10;4.17;;;;;;;26.09;59.65;99561.16;5038715;28;20470;-62
2022/06/19 02:27:30;;;;;;;8.50;3.90;;;;;;;26.09;59.99;99560.34;5053795;28;20429;-62
2022/06/19 02:29:56;;;;;;;10.17;3.80;;;;;;;26.09;59.49;99557.47;5053223;28;20230;-62
2022/06/19 02:32:30;;;;;;;12.53;4.30;;;;;;;26.08;59.32;99550.84;5040881;28;20443;-62
2022/06/19 02:34:55;;;;;;;8.27;3.40;;;;;;;26.08;59.92;99553.75;5052016;28;20437;-62
2022/06/19 02:37:23;;;;;;;11.20;3.87;;;;;;;26.09;59.53;99557.47;5052974;28;20430;-61
2022/06/19 02:39:53;;;;;;;10.90;4.17;;;;;;;26.08;59.40;99550.84;5053122;28;20270;-62
2022/06/19 02:42:24;;;;;;;15.23;3.67;;;;;;;26.08;59.36;99558.69;5052000;28;20458;-62
2022/06/19 02:44:52;;;;;;;14.90;4.10;;;;;;;26.07;59.25;99549.22;5048477;28;20454;-62
2022/06/19 02:47:18;;;;;;;10.23;3.90;;;;;;;26.08;59.12;99550.84;5053224;28;20927;-62
2022/06/19 02:49:43;;;;;;;5.83;3.30;;;;;;;26.08;59.17;99552.91;5052970;28;20421;-62
2022/06/19 02:52:10;;;;;;;9.50;4.23;;;;;;;26.07;59.27;99546.34;5052712;28;20657;-62
2022/06/19 02:54:35;;;;;;;9.07;3.80;;;;;;;26.06;59.61;99556.28;5042081;28;20188;-62
2022/06/19 02:57:01;;;;;;;10.67;4.40;;;;;;;26.06;59.42;99556.28;5032092;28;20856;-62
2022/06/19 02:59:26;;;;;;;9.90;3.57;;;;;;;26.05;59.10;99548.84;5032844;28;20609;-62
2022/06/19 03:01:52;;;;;;;9.77;3.13;;;;;;;26.06;59.17;99555.47;5033187;28;20527;-62
2022/06/19 03:04:23;;;;;;;11.07;3.60;;;;;;;26.05;59.11;99553.84;5032617;28;20204;-62
2022/06/19 03:06:49;;;;;;;8.70;4.20;;;;;;;26.05;59.27;99553.84;5031784;28;20540;-62
2022/06/19 03:09:14;;;;;;;17.50;4.63;;;;;;;26.04;59.72;99541.44;5032555;28;20454;-62
2022/06/19 03:11:40;;;;;;;8.10;3.93;;;;;;;26.04;59.57;99541.44;5032626;28;20228;-62
2022/06/19 03:14:05;;;;;;;7.57;3.40;;;;;;;26.04;59.63;99541.44;5032570;28;20176;-62
2022/06/19 03:16:31;;;;;;;9.40;4.10;;;;;;;26.05;59.54;99542.25;5032108;28;20181;-62
2022/06/19 03:18:58;;;;;;;12.93;3.70;;;;;;;26.04;59.53;99550.13;5029705;28;20536;-62
2022/06/19 03:21:23;;;;;;;10.93;3.87;;;;;;;26.03;59.76;99545.59;5030058;28;20172;-62
2022/06/19 03:23:49;;;;;;;16.63;3.87;;;;;;;26.04;59.25;99547.22;5029689;28;20463;-62
2022/06/19 03:26:14;;;;;;;6.03;3.00;;;;;;;26.03;59.10;99539.00;5031202;28;20180;-62
2022/06/19 03:28:40;;;;;;;10.63;4.20;;;;;;;26.02;58.95;99529.50;5068374;28;20563;-62
2022/06/19 03:31:05;;;;;;;8.93;3.47;;;;;;;26.03;59.39;99534.03;5068416;28;20175;-62
2022/06/19 03:33:31;;;;;;;9.10;3.67;;;;;;;26.03;58.89;99533.19;5070126;28;20634;-62
2022/06/19 03:35:56;;;;;;;12.80;3.57;;;;;;;26.02;58.81;99532.41;5069370;28;20232;-62
2022/06/19 03:38:22;;;;;;;9.80;3.53;;;;;;;26.01;58.98;99522.09;5070848;28;20538;-62
2022/06/19 03:40:47;;;;;;;13.30;4.00;;;;;;;26.02;59.24;99529.50;5070655;28;20569;-62
2022/06/19 03:43:13;;;;;;;8.10;3.47;;;;;;;26.02;59.31;99526.63;5071729;28;20182;-62
2022/06/19 03:45:38;;;;;;;11.37;3.73;;;;;;;26.01;59.15;99529.97;5072130;28;20717;-62
2022/06/19 03:48:04;;;;;;;8.63;4.43;;;;;;;26.01;59.22;99533.66;5049383;28;20184;-61
2022/06/19 03:50:29;;;;;;;12.90;3.37;;;;;;;26.00;59.31;99540.69;5034575;28;20191;-61
2022/06/19 03:52:55;;;;;;;10.57;3.70;;;;;;;26.01;58.60;99538.63;5031360;28;20181;-61
2022/06/19 03:55:21;;;;;;;9.00;3.70;;;;;;;26.00;58.85;99540.69;5030428;28;20188;-61
2022/06/19 03:57:46;;;;;;;8.17;3.57;;;;;;;25.99;59.05;99544.88;5032062;28;20169;-61
2022/06/19 04:00:15;;;;;;;7.90;3.50;;;;;;;25.98;59.13;99540.34;5029901;28;20659;-61
2022/06/19 04:02:42;;;;;;;8.07;3.60;;;;;;;25.98;58.87;99537.44;5032079;28;20192;-61
2022/06/19 04:05:08;;;;;;;13.60;3.30;;;;;;;25.98;59.25;99549.03;5030265;28;20455;-61
2022/06/19 04:07:33;;;;;;;10.17;3.70;;;;;;;26.00;59.17;99543.59;5032470;28;21045;-61
2022/06/19 04:09:59;;;;;;;9.03;3.50;;;;;;;25.99;58.50;99547.75;5031456;28;20180;-61
2022/06/19 04:12:25;;;;;;;8.37;3.57;;;;;;;25.99;58.17;99541.97;5032012;28;20639;-61
2022/06/19 04:14:52;;;;;;;8.17;3.83;;;;;;;25.98;58.78;99540.34;5031527;28;20407;-61
2022/06/19 04:17:17;;;;;;;10.00;4.50;;;;;;;25.98;58.65;99537.44;5031348;28;20274;-61
2022/06/19 04:19:42;;;;;;;11.70;3.70;;;;;;;25.98;58.42;99539.53;5041586;28;20422;-61
2022/06/19 04:22:08;;;;;;;10.30;3.60;;;;;;;25.97;58.70;99538.72;5051351;28;20180;-61
2022/06/19 04:24:33;;;;;;;8.53;3.07;;;;;;;25.98;58.56;99543.25;5043267;28;20567;-61
2022/06/19 04:27:03;;;;;;;11.57;4.23;;;;;;;25.96;58.54;99534.22;5058273;28;20182;-61
2022/06/19 04:29:28;;;;;;;7.20;3.63;;;;;;;25.96;58.30;99540.00;5071386;28;20289;-62
2022/06/19 04:31:56;;;;;;;12.27;3.70;;;;;;;25.95;58.58;99538.34;5071000;28;20417;-62
2022/06/19 04:34:21;;;;;;;9.40;3.37;;;;;;;25.96;57.60;99545.78;5070818;28;20228;-62
2022/06/19 04:36:47;;;;;;;9.47;3.50;;;;;;;25.94;58.41;99542.50;5053219;28;20430;-62
2022/06/19 04:39:12;;;;;;;10.20;3.33;;;;;;;25.96;58.24;99537.09;5051225;28;20184;-62
2022/06/19 04:41:39;;;;;;;8.40;2.90;;;;;;;25.97;58.01;99537.91;5050693;28;20198;-62
2022/06/19 04:44:06;;;;;;;8.97;3.43;;;;;;;25.98;57.88;99554.81;5046264;28;20223;-62
2022/06/19 04:46:32;;;;;;;10.27;3.97;;;;;;;25.99;58.35;99549.84;5050752;28;20833;-62
2022/06/19 04:48:57;;;;;;;12.43;4.10;;;;;;;25.99;58.12;99539.06;5048681;28;20433;-62
2022/06/19 04:51:24;;;;;;;10.20;3.73;;;;;;;26.01;58.18;99550.22;5048689;28;20180;-62
2022/06/19 04:53:50;;;;;;;11.70;3.60;;;;;;;26.01;57.48;99551.03;5044727;28;20189;-62
2022/06/19 04:56:16;;;;;;;12.43;3.63;;;;;;;26.02;57.93;99555.53;5027503;28;20840;-62
2022/06/19 04:58:41;;;;;;;10.30;3.83;;;;;;;26.02;57.53;99555.53;5028684;28;20179;-62
2022/06/19 05:01:33;;;;;;;15.77;3.87;;;;;;;26.04;57.13;99550.13;5030519;28;20898;-62
2022/06/19 05:04:00;;;;;;;10.00;3.13;;;;;;;26.04;57.60;99553.00;5030608;28;20220;-62
2022/06/19 05:06:26;;;;;;;12.00;4.00;;;;;;;26.03;57.51;99551.38;5034245;28;20434;-61
2022/06/19 05:08:51;;;;;;;7.33;3.27;;;;;;;26.04;57.11;99558.00;5035046;28;20477;-61
2022/06/19 05:11:17;;;;;;;12.93;3.83;;;;;;;26.03;57.17;99554.28;5033198;28;20587;-61
2022/06/19 05:13:42;;;;;;;11.80;2.87;;;;;;;26.03;56.67;99562.97;5034726;28;20180;-61
2022/06/19 05:16:10;;;;;;;9.73;3.70;;;;;;;26.05;56.68;99550.94;5034519;28;20180;-61
2022/06/19 05:18:35;;;;;;;10.93;3.93;;;;;;;26.05;56.03;99560.41;5034825;28;20208;-61
2022/06/19 05:21:01;;;;;;;22.10;4.43;;;;;;;26.05;56.48;99560.41;5034677;28;20422;-61
2022/06/19 05:23:39;;;;;;;8.70;3.40;;;;;;;26.06;55.90;99555.47;5036090;28;20267;-61
2022/06/19 05:26:13;;;;;;;12.57;3.33;;;;;;;26.06;56.02;99549.66;5045200;28;20207;-61
2022/06/19 05:28:38;;;;;;;8.93;3.80;;;;;;;26.07;56.21;99552.13;5051917;28;20786;-61
2022/06/19 05:31:04;;;;;;;10.37;3.70;;;;;;;26.08;55.69;99550.03;5053120;28;20509;-61
2022/06/19 05:33:30;;;;;;;10.40;3.93;;;;;;;26.09;55.84;99557.47;5054484;28;20541;-61
2022/06/19 05:35:56;;;;;;;11.60;4.80;;;;;;;26.08;56.00;99550.84;5054493;28;20653;-61
2022/06/19 05:38:21;;;;;;;11.03;3.80;;;;;;;26.10;56.07;99553.28;5054459;28;20426;-61
2022/06/19 05:40:50;;;;;;;14.23;4.60;;;;;;;26.10;55.76;99557.00;5038592;28;20267;-61
2022/06/19 05:43:15;;;;;;;10.60;3.83;;;;;;;26.09;55.68;99561.16;5033102;28;20187;-61
2022/06/19 05:45:49;;;;;;;8.60;3.83;;;;;;;26.09;55.77;99561.16;5036637;28;20466;-61
2022/06/19 05:48:14;;;;;;;8.60;3.43;;;;;;;26.09;55.74;99574.81;5034499;28;20168;-61
2022/06/19 05:50:39;;;;;;;14.60;4.00;;;;;;;26.09;55.47;99575.63;5034244;28;20400;-61
2022/06/19 05:53:05;;;;;;;10.07;3.70;;;;;;;26.10;55.76;99573.56;5034095;28;20184;-61
2022/06/19 05:55:30;;;;;;;12.00;3.70;;;;;;;26.10;55.72;99574.34;5052333;28;20330;-62
2022/06/19 05:57:56;;;;;;;8.70;3.80;;;;;;;26.11;55.82;99570.22;5054060;28;20175;-62
2022/06/19 06:00:21;;;;;;;12.60;3.80;;;;;;;26.13;55.23;99582.13;5053887;28;20522;-62
2022/06/19 06:02:47;;;;;;;9.47;3.37;;;;;;;26.13;56.02;99570.56;5053947;28;20180;-62
2022/06/19 06:05:12;;;;;;;8.47;3.17;;;;;;;26.16;55.43;99578.34;5053854;28;20226;-62
2022/06/19 06:07:38;;;;;;;15.93;5.03;;;;;;;26.16;54.79;99572.56;5053474;28;20618;-62
2022/06/19 06:10:03;;;;;;;17.93;4.40;;;;;;;26.20;54.35;99579.06;5053221;28;20172;-62
2022/06/19 06:12:29;;;;;;;11.50;4.00;;;;;;;26.20;54.83;99570.38;5053540;28;20231;-62
2022/06/19 06:14:54;;;;;;;11.93;4.00;;;;;;;26.22;54.73;99564.16;5053779;28;20168;-62
2022/06/19 06:17:21;;;;;;;15.37;4.40;;;;;;;26.22;54.73;99569.94;5052631;28;20209;-62
2022/06/19 06:19:47;;;;;;;12.50;4.20;;;;;;;26.21;54.85;99568.31;5052350;28;20600;-62
2022/06/19 06:22:12;;;;;;;14.77;4.10;;;;;;;26.21;55.39;99577.00;5053350;28;20450;-62
2022/06/19 06:24:38;;;;;;;11.27;4.83;;;;;;;26.20;55.31;99579.06;5042194;28;20212;-62
2022/06/19 06:27:05;;;;;;;12.07;3.83;;;;;;;26.19;55.40;99580.34;5048777;28;20183;-62
2022/06/19 06:29:30;;;;;;;8.80;3.33;;;;;;;26.18;54.66;99593.19;5073588;28;20907;-62
2022/06/19 06:31:58;;;;;;;14.37;3.83;;;;;;;26.19;54.67;99588.22;5067901;28;20430;-62
2022/06/19 06:34:23;;;;;;;15.23;4.03;;;;;;;26.18;54.81;99593.19;5053453;28;20255;-62
2022/06/19 06:36:49;;;;;;;13.83;4.70;;;;;;;26.17;54.97;99585.78;5053037;28;20509;-62
2022/06/19 06:39:14;;;;;;;12.20;4.50;;;;;;;26.19;54.59;99599.78;5052796;28;20172;-62
2022/06/19 06:41:40;;;;;;;12.67;4.20;;;;;;;26.19;54.27;99600.59;5035668;28;20189;-62
2022/06/19 06:44:05;;;;;;;12.43;4.23;;;;;;;26.20;54.92;99613.78;5031998;28;20579;-62
2022/06/19 06:46:31;;;;;;;19.13;4.37;;;;;;;26.20;54.44;99605.09;5033066;28;20176;-62
2022/06/19 06:48:59;;;;;;;9.17;3.90;;;;;;;26.22;54.27;99604.66;5033196;28;20246;-62
2022/06/19 06:51:26;;;;;;;23.57;4.80;;;;;;;26.22;54.54;99611.28;5034776;28;20229;-61
2022/06/19 06:53:51;;;;;;;19.17;4.90;;;;;;;26.24;54.26;99608.75;5038093;28;20426;-61
2022/06/19 06:56:17;;;;;;;19.83;5.20;;;;;;;26.25;54.54;99610.38;5052621;28;20433;-61
2022/06/19 06:58:42;;;;;;;11.93;4.43;;;;;;;26.24;54.32;99620.31;5052820;28;20547;-61
2022/06/19 07:01:13;;;;;;;19.23;5.20;;;;;;;26.26;54.11;99609.13;5052580;28;20202;-61
2022/06/19 07:03:39;;;;;;;17.77;4.93;;;;;;;26.25;54.37;99609.56;5053071;28;20201;-61
2022/06/19 07:06:04;;;;;;;13.07;3.90;;;;;;;26.25;54.41;99604.56;5052605;28;20953;-61
2022/06/19 07:08:29;;;;;;;12.70;4.63;;;;;;;26.25;54.85;99610.38;5052850;28;20576;-61
2022/06/19 07:10:55;;;;;;;14.37;4.60;;;;;;;26.26;54.79;99614.91;5052704;28;20748;-62
2022/06/19 07:13:20;;;;;;;15.63;4.40;;;;;;;26.27;54.88;99607.84;5052645;28;20180;-61
2022/06/19 07:15:46;;;;;;;15.27;4.03;;;;;;;26.27;55.31;99604.94;5052386;28;20171;-61
2022/06/19 07:18:11;;;;;;;16.93;4.87;;;;;;;26.28;55.14;99605.75;5052538;28;20537;-61
2022/06/19 07:20:37;;;;;;;13.77;4.83;;;;;;;26.27;54.93;99610.75;5052725;28;20229;-61
2022/06/19 07:23:05;;;;;;;13.07;5.20;;;;;;;26.28;55.21;99602.84;5052153;28;20623;-61
2022/06/19 07:25:31;;;;;;;15.43;5.60;;;;;;;26.28;54.80;99603.69;5050831;28;20605;-61
2022/06/19 07:27:59;;;;;;;16.53;5.00;;;;;;;26.29;55.39;99602.41;5065014;28;20451;-61
2022/06/19 07:30:26;;;;;;;13.47;5.20;;;;;;;26.29;55.02;99607.41;5070950;28;20494;-61
2022/06/19 07:32:52;;;;;;;15.27;6.37;;;;;;;26.29;55.01;99605.31;5069348;28;20414;-61
2022/06/19 07:35:17;;;;;;;17.37;5.30;;;;;;;26.28;55.49;99592.09;5043792;28;20430;-61
2022/06/19 07:37:42;;;;;;;18.23;6.30;;;;;;;26.31;54.96;99596.19;5033114;28;20419;-61
2022/06/19 07:40:10;;;;;;;15.83;5.57;;;;;;;26.29;55.23;99590.84;5032197;28;20287;-62
2022/06/19 07:42:35;;;;;;;11.10;5.17;;;;;;;26.29;55.27;99592.94;5030788;28;20271;-62
2022/06/19 07:45:00;;;;;;;17.17;5.37;;;;;;;26.28;55.29;99589.22;5031863;28;20454;-62
2022/06/19 07:50:10;;;;;;;16.13;6.80;;;;;;;26.27;55.70;99581.81;5032020;28;20242;-61
2022/06/19 07:52:40;;;;;;;10.23;5.80;;;;;;;26.29;55.62;99581.34;5031956;28;20415;-61
2022/06/19 07:55:06;;;;;;;13.43;5.70;;;;;;;26.29;56.23;99576.38;5046607;28;20211;-61
2022/06/19 07:57:31;;;;;;;11.73;5.77;;;;;;;26.28;56.39;99577.63;5051168;28;20422;-61
2022/06/19 07:59:57;;;;;;;15.80;5.53;;;;;;;26.30;56.35;99577.19;5050325;28;20497;-61
2022/06/19 08:02:24;;;;;;;17.93;6.50;;;;;;;26.32;56.38;99580.44;5050195;28;20171;-61
2022/06/19 08:04:50;;;;;;;13.97;5.50;;;;;;;26.31;55.79;99573.84;5050248;28;20578;-61
2022/06/19 08:07:16;;;;;;;14.57;6.47;;;;;;;26.30;56.01;99575.09;5049941;28;20513;-61
2022/06/19 08:09:41;;;;;;;12.27;5.83;;;;;;;26.29;55.92;99561.09;5050131;28;20419;-61
2022/06/19 08:12:07;;;;;;;12.77;5.97;;;;;;;26.31;56.04;99565.16;5049698;28;20643;-61
2022/06/19 08:14:33;;;;;;;14.50;5.90;;;;;;;26.31;56.07;99565.16;5050178;28;20175;-61
2022/06/19 08:16:58;;;;;;;15.60;6.07;;;;;;;26.31;56.43;99570.13;5049944;28;20752;-61
2022/06/19 08:19:23;;;;;;;15.43;6.63;;;;;;;26.30;56.01;99563.50;5049547;28;20168;-61
2022/06/19 08:21:49;;;;;;;13.27;6.23;;;;;;;26.30;56.41;99565.59;5049776;28;20217;-61
2022/06/19 08:24:14;;;;;;;9.03;5.77;;;;;;;26.30;56.77;99571.41;5041764;28;20659;-61
2022/06/19 08:26:40;;;;;;;14.03;5.77;;;;;;;26.35;56.10;99576.66;5042395;28;20168;-61
2022/06/19 08:29:05;;;;;;;12.67;5.90;;;;;;;26.35;55.85;99557.19;5069736;28;20236;-61
2022/06/19 08:31:31;;;;;;;13.33;6.20;;;;;;;26.34;56.10;99560.56;5069775;28;20228;-62
2022/06/19 08:33:56;;;;;;;18.13;6.17;;;;;;;26.36;56.43;99567.53;5053170;28;20873;-62
2022/06/19 08:36:22;;;;;;;16.57;6.23;;;;;;;26.36;55.73;99561.72;5042225;28;20419;-62
2022/06/19 08:38:51;;;;;;;14.83;6.67;;;;;;;26.34;56.36;99563.44;5030403;28;20181;-62
2022/06/19 08:41:22;;;;;;;13.63;6.37;;;;;;;26.35;56.44;99556.38;5028144;28;20553;-62
2022/06/19 08:44:25;;;;;;;17.73;6.70;;;;;;;26.33;56.39;99562.63;5029491;28;20430;-62
2022/06/19 08:47:09;;;;;;;9.77;6.10;;;;;;;26.35;55.84;99568.75;5030049;28;20419;-62
2022/06/19 08:49:57;;;;;;;11.37;5.60;;;;;;;26.35;56.45;99557.19;5029276;28;20545;-62
2022/06/19 08:52:59;;;;;;;13.60;6.20;;;;;;;26.38;55.63;99552.56;5030486;28;20423;-61
2022/06/19 08:55:40;;;;;;;12.37;6.77;;;;;;;26.38;56.28;99558.34;5048500;28;20410;-61
2022/06/19 08:58:26;;;;;;;13.50;6.43;;;;;;;26.42;55.75;99564.88;5049780;28;20399;-61
2022/06/19 09:01:08;;;;;;;14.63;6.67;;;;;;;26.41;55.43;99555.41;5049391;28;20511;-61
2022/06/19 09:06:52;;;;;;;10.00;7.03;;;;;;;26.41;55.61;99561.19;5048485;28;21013;-61
2022/06/19 09:09:40;;;;;;;11.60;6.50;;;;;;;26.46;55.11;99556.91;5049439;28;20417;-61
2022/06/19 09:12:30;;;;;;;14.87;6.90;;;;;;;26.48;54.11;99552.31;5048531;28;20551;-61
2022/06/19 09:15:13;;;;;;;12.00;6.67;;;;;;;26.47;54.07;99564.34;5050877;28;20410;-61
2022/06/19 09:17:42;;;;;;;11.20;6.30;;;;;;;26.49;54.48;99559.72;5049394;28;20419;-61
2022/06/19 09:20:16;;;;;;;17.57;8.00;;;;;;;26.51;53.73;99559.28;5049318;28;20501;-61
2022/06/19 09:23:01;;;;;;;12.77;6.63;;;;;;;26.50;54.33;99566.34;5050960;28;20889;-61
2022/06/19 09:25:45;;;;;;;10.23;6.50;;;;;;;26.53;54.06;99571.19;5050792;28;20461;-62
2022/06/19 09:28:22;;;;;;;12.50;6.53;;;;;;;26.55;53.75;99571.59;5067004;28;20422;-62
2022/06/19 09:30:54;;;;;;;13.43;7.20;;;;;;;26.59;53.04;99567.34;5068974;28;20460;-62
2022/06/19 09:33:22;;;;;;;18.33;7.50;;;;;;;26.57;53.38;99569.88;5067641;28;20405;-62
2022/06/19 09:35:57;;;;;;;12.23;7.30;;;;;;;26.54;53.51;99572.84;5069058;28;20783;-62
2022/06/19 09:38:46;;;;;;;13.13;7.23;;;;;;;26.54;52.93;99576.53;5066305;28;20503;-62
2022/06/19 09:41:17;;;;;;;14.67;6.90;;;;;;;26.58;52.88;99577.31;5029119;28;20461;-62
2022/06/19 09:44:15;;;;;;;15.43;7.37;;;;;;;26.56;53.18;99576.13;5029424;28;20763;-62
2022/06/19 09:46:46;;;;;;;11.40;6.97;;;;;;;26.58;52.83;99576.47;5032438;28;20445;-62
2022/06/19 09:49:33;;;;;;;16.30;6.80;;;;;;;26.63;52.33;99573.03;5028642;28;20407;-62
2022/06/19 09:52:12;;;;;;;13.43;7.50;;;;;;;26.63;52.06;99568.06;5031106;28;20411;-62
2022/06/19 09:54:48;;;;;;;11.00;7.07;;;;;;;26.61;52.26;99561.09;5043396;28;20786;-62
2022/06/19 09:57:21;;;;;;;16.03;7.23;;;;;;;26.61;53.01;99572.69;5052280;28;20430;-61
2022/06/19 10:00:00;;;;;;;17.50;6.83;;;;;;;26.64;53.35;99563.91;5050676;28;20410;-61
2022/06/19 10:02:30;;;;;;;12.50;6.97;;;;;;;26.63;52.34;99550.69;5034702;28;20405;-61
2022/06/19 10:04:59;;;;;;;15.03;7.70;;;;;;;26.66;52.77;99555.59;5051433;28;20502;-61
2022/06/19 10:07:32;;;;;;;13.23;7.60;;;;;;;26.63;52.73;99550.69;5036137;28;20496;-61
2022/06/19 10:10:04;;;;;;;17.57;7.63;;;;;;;26.64;52.51;99555.22;5053689;28;20414;-61
2022/06/19 10:12:43;;;;;;;11.30;7.27;;;;;;;26.73;52.39;99554.56;5050986;28;20457;-61
2022/06/19 10:15:38;;;;;;;11.60;7.30;;;;;;;26.79;51.39;99536.19;5051025;28;20484;-61
2022/06/19 10:18:14;;;;;;;9.30;6.30;;;;;;;26.75;50.58;99540.47;5049892;28;20967;-61
2022/06/19 10:20:57;;;;;;;10.53;6.93;;;;;;;26.72;51.14;99552.94;5030991;28;20423;-61
2022/06/19 10:24:02;;;;;;;13.43;6.90;;;;;;;26.75;51.11;99547.03;5033061;28;20410;-61
2022/06/19 10:26:39;;;;;;;11.13;7.00;;;;;;;26.72;51.35;99536.38;5035852;28;20797;-61
2022/06/19 10:29:27;;;;;;;13.03;7.00;;;;;;;26.74;50.71;99539.63;5070915;28;20762;-61
2022/06/19 10:32:21;;;;;;;10.70;7.07;;;;;;;26.73;51.19;99537.19;5072437;28;20948;-61
2022/06/19 10:35:05;;;;;;;11.23;6.03;;;;;;;26.79;50.89;99530.38;5044971;28;20403;-61
2022/06/19 10:37:39;;;;;;;13.53;6.60;;;;;;;26.77;50.04;99541.63;5046358;28;20406;-61
2022/06/19 10:40:30;;;;;;;10.33;6.43;;;;;;;26.74;50.45;99545.44;5053138;28;20406;-61
2022/06/19 10:43:15;;;;;;;18.07;6.90;;;;;;;26.82;50.62;99546.88;5051974;28;20915;-61
2022/06/19 10:45:52;;;;;;;12.13;6.70;;;;;;;26.86;50.28;99547.59;5051808;28;20446;-61
2022/06/19 10:48:48;;;;;;;9.87;6.33;;;;;;;26.76;50.58;99533.38;5052847;28;20418;-61
2022/06/19 10:51:21;;;;;;;12.93;6.97;;;;;;;26.76;50.81;99534.22;5053110;28;20398;-61
2022/06/19 10:53:56;;;;;;;15.17;5.80;;;;;;;26.82;49.69;99541.06;5047369;28;20474;-61
2022/06/19 10:56:51;;;;;;;18.67;6.87;;;;;;;26.83;49.96;99531.09;5034507;28;20410;-61
2022/06/19 10:59:17;;;;;;;11.27;6.47;;;;;;;26.77;49.84;99530.03;5032967;28;20426;-61
2022/06/19 11:04:36;;;;;;;15.17;6.17;;;;;;;26.87;49.91;99531.00;5032659;28;20461;-61
2022/06/19 11:07:13;;;;;;;13.10;6.80;;;;;;;26.86;50.19;99532.28;5032494;28;20473;-61
2022/06/19 11:09:49;;;;;;;13.20;6.73;;;;;;;26.88;49.78;99524.75;5031582;28;20414;-61
2022/06/19 11:12:23;;;;;;;15.13;7.70;;;;;;;26.88;49.11;99527.66;4743137;28;20478;-61
2022/06/19 11:14:52;;;;;;;14.70;6.50;;;;;;;26.92;49.30;99525.47;5031426;28;20418;-61
2022/06/19 11:17:40;;;;;;;12.03;6.83;;;;;;;26.96;48.83;99517.50;5032511;28;20415;-61
2022/06/19 11:20:32;;;;;;;9.33;6.40;;;;;;;26.99;48.93;99516.56;5032440;28;20427;-62
2022/06/19 11:23:05;;;;;;;15.53;7.17;;;;;;;26.89;49.28;99509.00;5030897;28;20533;-62
2022/06/19 11:25:39;;;;;;;11.23;6.33;;;;;;;26.91;48.87;99511.44;5014026;28;20598;-61
2022/06/19 11:28:15;;;;;;;11.63;5.77;;;;;;;26.96;48.54;99505.91;5062846;28;20412;-61
2022/06/19 11:30:42;;;;;;;11.57;6.50;;;;;;;27.09;48.81;99505.97;5069022;28;20408;-61
2022/06/19 11:33:12;;;;;;;14.73;6.90;;;;;;;27.03;48.31;99499.91;5066073;28;20550;-61
2022/06/19 11:35:45;;;;;;;12.40;6.17;;;;;;;27.06;48.60;99498.19;5043365;28;20493;-61
2022/06/19 11:38:10;;;;;;;10.47;7.00;;;;;;;26.95;49.01;99501.38;5028805;28;20770;-61
2022/06/19 11:40:39;;;;;;;17.00;6.53;;;;;;;26.88;49.07;99503.66;5033228;28;20422;-61
2022/06/19 11:43:05;;;;;;;10.80;6.33;;;;;;;26.92;49.26;99499.41;5030918;28;20314;-61
2022/06/19 11:45:33;;;;;;;13.33;7.47;;;;;;;27.04;48.85;99498.63;5030538;28;20494;-61
2022/06/19 11:48:06;;;;;;;15.50;6.33;;;;;;;27.13;48.40;99495.88;5014691;28;20258;-61
2022/06/19 11:50:37;;;;;;;16.60;7.20;;;;;;;27.08;48.15;99490.66;5030726;28;20407;-61